Time;durP1;ratioP1;P1;durP2;ratioP2;P2;SDS_P1;SDS_P2;PMS_P1;PMS_P2;Temp;Humidity;BMP_temperature;BMP_pressure;BME280_temperature;BME280_humidity;BME280_pressure;Samples;Min_cycle;Max_cycle;Signal;HPM_P1;HPM_P2
2024/04/14 00:00:32;;;;;;;37.50;16.95;;;;;;;;;;5485939;26;20029;-74
2024/04/14 00:03:38;;;;;;;34.80;16.08;;;;;;;;;;5485367;26;20037;-74
2024/04/14 00:06:42;;;;;;;30.83;16.27;;;;;;;;;;5486129;26;20026;-74
2024/04/14 00:09:47;;;;;;;31.95;16.67;;;;;;;;;;5485795;26;20026;-74
2024/04/14 00:12:51;;;;;;;33.03;16.70;;;;;;;;;;5485712;26;20028;-75
2024/04/14 00:16:00;;;;;;;33.55;16.42;;;18.80;91.00;;;;;;5485820;26;20030;-75
2024/04/14 00:19:04;;;;;;;26.48;16.10;;;;;;;;;;5485684;26;20439;-74
2024/04/14 00:22:09;;;;;;;26.33;16.35;;;;;;;;;;5485377;26;20026;-74
2024/04/14 00:25:13;;;;;;;33.72;17.60;;;;;;;;;;5485808;26;20056;-74
2024/04/14 00:28:18;;;;;;;48.08;17.50;;;;;;;;;;5485144;26;20032;-74
2024/04/14 00:31:22;;;;;;;33.42;16.73;;;;;;;;;;5485050;26;20030;-74
2024/04/14 00:34:27;;;;;;;40.10;15.57;;;;;;;;;;5483440;26;20030;-74
2024/04/14 00:37:32;;;;;;;32.03;15.40;;;;;;;;;;5485573;26;20030;-75
2024/04/14 00:40:36;;;;;;;36.03;14.65;;;;;;;;;;5484985;26;20022;-74
2024/04/14 00:43:40;;;;;;;32.92;15.23;;;;;;;;;;5485036;26;20030;-74
2024/04/14 00:46:45;;;;;;;27.17;14.13;;;;;;;;;;5485857;26;20018;-74
2024/04/14 00:49:50;;;;;;;30.17;14.68;;;;;;;;;;5484583;26;20567;-74
2024/04/14 00:52:54;;;;;;;33.08;15.00;;;20.40;91.10;;;;;;5485022;26;20450;-74
2024/04/14 00:55:59;;;;;;;38.83;15.23;;;;;;;;;;5484577;26;20361;-75
2024/04/14 00:59:04;;;;;;;30.77;14.20;;;;;;;;;;5484728;26;20648;-74
2024/04/14 01:02:08;;;;;;;34.00;14.75;;;;;;;;;;5484786;26;20370;-74
2024/04/14 01:05:13;;;;;;;30.25;14.20;;;;;;;;;;5484717;26;20033;-75
2024/04/14 01:08:17;;;;;;;25.38;13.48;;;;;;;;;;5484917;26;20258;-75
2024/04/14 01:11:22;;;;;;;27.45;13.35;;;;;;;;;;5484694;26;20523;-75
2024/04/14 01:14:26;;;;;;;27.75;13.20;;;;;;;;;;5484391;26;20018;-73
2024/04/14 01:17:31;;;;;;;24.75;13.85;;;;;;;;;;5484560;26;20030;-75
2024/04/14 01:20:36;;;;;;;36.78;14.57;;;;;;;;;;5484911;26;20018;-74
2024/04/14 01:23:40;;;;;;;29.73;13.60;;;;;;;;;;5484249;26;20026;-74
2024/04/14 01:26:45;;;;;;;29.90;14.20;;;;;;;;;;5484648;26;20038;-74
2024/04/14 01:29:49;;;;;;;31.73;13.82;;;;;;;;;;5484647;26;20034;-74
2024/04/14 01:32:54;;;;;;;25.10;12.88;;;;;;;;;;5484118;26;20022;-75
2024/04/14 01:35:58;;;;;;;28.08;12.45;;;;;;;;;;5484659;26;20021;-74
2024/04/14 01:39:03;;;;;;;22.42;12.90;;;;;;;;;;5484324;26;20015;-74
2024/04/14 01:42:08;;;;;;;20.13;11.32;;;;;;;;;;5483832;26;20037;-74
2024/04/14 01:45:12;;;;;;;25.25;12.13;;;;;;;;;;5485460;26;20022;-74
2024/04/14 01:48:17;;;;;;;25.52;11.50;;;;;;;;;;5488187;26;20365;-74
2024/04/14 01:51:21;;;;;;;23.08;10.77;;;;;;;;;;5487756;26;20018;-74
2024/04/14 01:54:25;;;;;;;19.58;11.93;;;;;;;;;;5487448;26;20022;-75
2024/04/14 01:57:32;;;;;;;22.95;12.15;;;18.10;91.60;;;;;;5488009;26;20030;-75
2024/04/14 02:00:37;;;;;;;20.25;11.80;;;;;;;;;;5487554;26;20018;-74
2024/04/14 02:03:42;;;;;;;24.10;12.55;;;;;;;;;;5487745;26;20481;-74
2024/04/14 02:06:49;;;;;;;22.33;12.13;;;17.60;91.90;;;;;;5487797;26;20034;-73
2024/04/14 02:09:53;;;;;;;20.88;12.63;;;;;;;;;;5487369;26;20030;-74
2024/04/14 02:12:58;;;;;;;26.25;12.07;;;;;;;;;;5487546;26;20022;-74
2024/04/14 02:16:02;;;;;;;28.10;14.70;;;;;;;;;;5487952;26;20021;-75
2024/04/14 02:19:07;;;;;;;27.60;15.65;;;;;;;;;;5487941;26;20088;-74
2024/04/14 02:22:11;;;;;;;32.72;15.50;;;;;;;;;;5487707;26;20045;-74
2024/04/14 02:25:16;;;;;;;28.40;16.27;;;;;;;;;;5487657;26;20018;-74
2024/04/14 02:28:20;;;;;;;26.25;13.77;;;;;;;;;;5487709;26;20034;-75
2024/04/14 02:31:24;;;;;;;27.20;13.48;;;;;;;;;;5487413;26;20026;-74
2024/04/14 02:34:29;;;;;;;19.95;12.45;;;;;;;;;;5487453;26;20030;-74
2024/04/14 02:37:33;;;;;;;26.00;12.35;;;;;;;;;;5487227;26;20473;-74
2024/04/14 02:40:38;;;;;;;18.85;12.05;;;;;;;;;;5487527;26;20018;-74
2024/04/14 02:43:44;;;;;;;24.63;12.57;;;;;;;;;;5487838;26;20386;-75
2024/04/14 02:46:48;;;;;;;23.85;12.43;;;;;;;;;;5487417;26;20019;-74
2024/04/14 02:49:52;;;;;;;21.52;11.73;;;;;;;;;;5487111;26;20034;-74
2024/04/14 02:52:57;;;;;;;23.90;12.85;;;;;;;;;;5486847;26;20030;-75
2024/04/14 02:56:03;;;;;;;22.08;12.43;;;;;;;;;;5485903;26;20358;-74
2024/04/14 02:59:07;;;;;;;20.42;13.20;;;;;;;;;;5487014;26;20479;-75
2024/04/14 03:02:11;;;;;;;21.75;13.25;;;;;;;;;;5487071;26;20370;-74
2024/04/14 03:05:16;;;;;;;27.98;12.90;;;;;;;;;;5486613;26;20018;-75
2024/04/14 03:08:20;;;;;;;23.33;12.98;;;;;;;;;;5486939;26;20100;-74
2024/04/14 03:11:25;;;;;;;21.27;13.20;;;16.90;92.30;;;;;;5486718;26;20497;-74
2024/04/14 03:14:30;;;;;;;22.35;13.32;;;;;;;;;;5486430;26;20034;-74
2024/04/14 03:17:34;;;;;;;21.42;13.73;;;;;;;;;;5486978;26;20022;-75
2024/04/14 03:20:38;;;;;;;22.75;13.80;;;;;;;;;;5486756;26;20022;-75
2024/04/14 03:23:43;;;;;;;26.05;14.07;;;;;;;;;;5486388;26;20026;-74
2024/04/14 03:26:49;;;;;;;21.55;13.38;;;17.20;92.60;;;;;;5486918;26;20037;-74
2024/04/14 03:29:53;;;;;;;21.00;13.80;;;;;;;;;;5486209;26;20014;-74
2024/04/14 03:32:58;;;;;;;24.27;13.02;;;;;;;;;;5486664;26;20361;-74
2024/04/14 03:36:09;;;;;;;22.00;12.60;;;16.80;92.50;;;;;;5486767;26;20030;-73
2024/04/14 03:39:13;;;;;;;30.02;13.52;;;;;;;;;;5486464;26;20025;-74
2024/04/14 03:42:18;;;;;;;25.20;14.30;;;;;;;;;;5486360;26;20067;-75
2024/04/14 03:45:24;;;;;;;29.88;14.18;;;;;;;;;;5486247;26;20390;-74
2024/04/14 03:48:28;;;;;;;24.48;13.35;;;;;;;;;;5486224;26;20026;-74
2024/04/14 03:51:34;;;;;;;21.50;14.02;;;;;;;;;;5484822;26;20037;-75
2024/04/14 03:54:38;;;;;;;26.42;14.20;;;;;;;;;;5485696;26;20124;-74
2024/04/14 03:57:43;;;;;;;24.13;15.38;;;;;;;;;;5486080;26;20030;-73
2024/04/14 04:00:49;;;;;;;23.65;14.57;;;;;;;;;;5484759;26;20018;-75
2024/04/14 04:03:53;;;;;;;27.33;14.88;;;;;;;;;;5485590;26;20022;-74
2024/04/14 04:06:58;;;;;;;22.23;14.60;;;;;;;;;;5486148;26;20365;-74
2024/04/14 04:10:02;;;;;;;19.58;14.05;;;;;;;;;;5484310;26;20515;-74
2024/04/14 04:13:07;;;;;;;26.58;14.27;;;;;;;;;;5485499;26;20022;-75
2024/04/14 04:16:11;;;;;;;22.02;14.25;;;;;;;;;;5485675;26;20022;-75
2024/04/14 04:19:17;;;;;;;21.33;15.18;;;;;;;;;;5485378;26;20373;-75
2024/04/14 04:22:21;;;;;;;26.48;14.77;;;;;;;;;;5485221;26;20042;-74
2024/04/14 04:25:26;;;;;;;22.80;15.32;;;;;;;;;;5485455;26;20030;-75
2024/04/14 04:28:30;;;;;;;26.35;14.85;;;;;;;;;;5485076;26;20034;-74
2024/04/14 04:31:35;;;;;;;26.40;16.23;;;;;;;;;;5485193;26;20022;-74
2024/04/14 04:34:39;;;;;;;21.38;14.63;;;;;;;;;;5485368;26;20022;-74
2024/04/14 04:37:44;;;;;;;27.30;14.65;;;;;;;;;;5484880;26;20485;-75
2024/04/14 04:40:48;;;;;;;18.35;14.35;;;;;;;;;;5483764;26;20021;-74
2024/04/14 04:43:53;;;;;;;24.63;14.27;;;;;;;;;;5485225;26;20030;-74
2024/04/14 04:46:57;;;;;;;18.73;14.25;;;;;;;;;;5485147;26;20035;-75
2024/04/14 04:50:02;;;;;;;23.08;14.52;;;;;;;;;;5485012;26;20426;-75
2024/04/14 04:53:06;;;;;;;26.90;14.65;;;;;;;;;;5485020;26;20022;-75
2024/04/14 04:56:11;;;;;;;25.35;13.55;;;;;;;;;;5485034;26;20022;-74
2024/04/14 04:59:17;;;;;;;31.60;12.88;;;;;;;;;;5484812;26;20038;-75
2024/04/14 05:02:21;;;;;;;26.38;12.93;;;;;;;;;;5484694;26;20038;-75
2024/04/14 05:05:27;;;;;;;31.90;17.85;;;;;;;;;;5484630;26;20030;-74
2024/04/14 05:08:34;;;;;;;40.25;20.20;;;17.50;91.10;;;;;;5484769;26;20018;-74
2024/04/14 05:11:38;;;;;;;39.80;22.02;;;;;;;;;;5484512;26;20044;-74
2024/04/14 05:14:43;;;;;;;36.28;16.30;;;;;;;;;;5484269;26;20030;-75
2024/04/14 05:17:47;;;;;;;35.50;17.08;;;;;;;;;;5484360;26;20022;-74
2024/04/14 05:20:52;;;;;;;38.80;17.15;;;;;;;;;;5486670;26;20038;-74
2024/04/14 05:23:56;;;;;;;27.20;15.55;;;;;;;;;;5487957;26;20026;-75
2024/04/14 05:27:01;;;;;;;29.75;13.52;;;19.70;89.20;;;;;;5487967;26;20026;-75
2024/04/14 05:30:06;;;;;;;21.23;13.68;;;;;;;;;;5488205;26;20022;-75
2024/04/14 05:33:11;;;;;;;33.60;13.15;;;;;;;;;;5487880;26;20027;-74
2024/04/14 05:36:15;;;;;;;37.15;13.18;;;;;;;;;;5488229;26;20026;-74
2024/04/14 05:39:20;;;;;;;29.02;13.25;;;;;;;;;;5488023;26;20030;-75
2024/04/14 05:42:24;;;;;;;31.15;14.60;;;;;;;;;;5488092;26;20513;-75
2024/04/14 05:45:28;;;;;;;31.88;16.00;;;;;;;;;;5487979;26;20018;-74
2024/04/14 05:48:32;;;;;;;36.90;22.77;;;;;;;;;;5487941;26;20026;-76
2024/04/14 05:51:37;;;;;;;35.88;22.98;;;;;;;;;;5487299;26;20030;-74
2024/04/14 05:54:42;;;;;;;42.38;23.90;;;;;;;;;;5487464;26;20026;-74
2024/04/14 05:57:46;;;;;;;43.08;20.80;;;20.20;79.50;;;;;;5487694;26;20030;-76
2024/04/14 06:00:50;;;;;;;41.67;23.65;;;22.40;81.80;;;;;;5486249;26;20022;-75
2024/04/14 06:03:54;;;;;;;47.80;25.38;;;22.40;81.80;;;;;;5487668;26;20031;-74
2024/04/14 06:06:58;;;;;;;49.28;24.38;;;22.40;82.90;;;;;;5488009;26;20046;-74
2024/04/14 06:10:03;;;;;;;38.33;22.67;;;22.40;83.10;;;;;;5487325;26;20022;-74
2024/04/14 06:13:07;;;;;;;53.45;23.42;;;22.30;82.90;;;;;;5487143;26;20038;-75
2024/04/14 06:16:11;;;;;;;37.80;21.23;;;22.40;83.40;;;;;;5487670;26;20014;-74
2024/04/14 06:19:16;;;;;;;35.17;19.58;;;22.70;83.00;;;;;;5487597;26;20018;-74
2024/04/14 06:22:21;;;;;;;36.80;19.35;;;22.90;81.50;;;;;;5487352;26;20033;-75
2024/04/14 06:25:25;;;;;;;35.05;20.48;;;23.20;80.50;;;;;;5487262;26;20461;-73
2024/04/14 06:28:31;;;;;;;43.33;21.40;;;23.50;79.60;;;;;;5487159;26;20022;-74
2024/04/14 06:31:35;;;;;;;31.15;19.88;;;23.70;79.30;;;;;;5486310;26;20022;-77
2024/04/14 06:34:39;;;;;;;43.45;20.08;;;24.00;78.40;;;;;;5486632;26;20022;-76
2024/04/14 06:37:43;;;;;;;32.85;19.15;;;24.30;77.90;;;;;;5487299;26;20022;-75
2024/04/14 06:40:48;;;;;;;27.23;18.27;;;24.70;77.40;;;;;;5487354;26;20022;-76
2024/04/14 06:43:52;;;;;;;42.85;23.77;;;25.10;76.10;;;;;;5487174;26;20018;-75
2024/04/14 06:46:56;;;;;;;33.90;22.05;;;25.20;76.50;;;;;;5486997;26;20018;-75
2024/04/14 06:50:00;;;;;;;35.22;20.15;;;25.10;76.60;;;;;;5486009;26;20018;-77
2024/04/14 06:53:04;;;;;;;39.97;19.52;;;25.40;76.60;;;;;;5487099;26;20025;-76
2024/04/14 06:56:08;;;;;;;33.28;16.55;;;25.60;75.60;;;;;;5486889;26;20022;-76
2024/04/14 06:59:12;;;;;;;28.25;14.70;;;25.80;75.10;;;;;;5487199;26;20365;-75
2024/04/14 07:02:16;;;;;;;26.90;14.13;;;25.80;73.80;;;;;;5486662;26;20021;-76
2024/04/14 07:05:20;;;;;;;19.58;11.07;;;26.00;73.60;;;;;;5486608;26;20018;-77
2024/04/14 07:08:25;;;;;;;22.40;11.85;;;26.30;71.90;;;;;;5483240;26;20022;-76
2024/04/14 07:11:29;;;;;;;26.90;12.32;;;26.40;71.60;;;;;;5483895;26;20304;-76
2024/04/14 07:14:34;;;;;;;24.15;11.40;;;26.40;71.40;;;;;;5485543;26;20069;-76
2024/04/14 07:17:38;;;;;;;27.55;12.40;;;26.60;72.40;;;;;;5485916;26;20017;-76
2024/04/14 07:20:42;;;;;;;29.38;13.30;;;26.70;70.90;;;;;;5486158;26;20470;-75
2024/04/14 07:23:46;;;;;;;25.45;14.00;;;26.90;71.30;;;;;;5486933;26;20018;-75
2024/04/14 07:26:50;;;;;;;33.30;14.98;;;27.30;71.00;;;;;;5486576;26;20357;-75
2024/04/14 07:29:54;;;;;;;25.42;13.63;;;27.50;70.40;;;;;;5487365;26;20018;-74
2024/04/14 07:32:58;;;;;;;28.13;13.82;;;27.60;70.20;;;;;;5487299;26;20022;-77
2024/04/14 07:36:03;;;;;;;29.40;13.80;;;27.50;70.20;;;;;;5486165;26;20022;-75
2024/04/14 07:39:07;;;;;;;25.50;14.43;;;27.40;70.80;;;;;;5486879;26;20022;-75
2024/04/14 07:42:11;;;;;;;29.92;17.95;;;27.50;70.60;;;;;;5485499;26;20026;-74
2024/04/14 07:45:16;;;;;;;36.33;19.80;;;27.70;70.90;;;;;;5486394;26;20026;-76
2024/04/14 07:48:20;;;;;;;29.08;18.80;;;27.90;70.30;;;;;;5486193;26;20026;-73
2024/04/14 07:51:24;;;;;;;42.28;18.25;;;28.00;70.40;;;;;;5486562;26;20026;-75
2024/04/14 07:54:28;;;;;;;31.67;16.33;;;28.20;70.70;;;;;;5486084;26;20325;-75
2024/04/14 07:57:32;;;;;;;35.05;16.85;;;28.50;69.20;;;;;;5464386;26;20419;-75
2024/04/14 08:00:36;;;;;;;26.45;15.80;;;28.50;69.10;;;;;;5486065;26;20022;-76
2024/04/14 08:03:40;;;;;;;64.38;14.73;;;28.30;68.90;;;;;;5486572;26;20018;-76
2024/04/14 08:06:44;;;;;;;31.63;13.80;;;28.30;67.70;;;;;;5486037;26;20023;-77
2024/04/14 08:09:48;;;;;;;18.45;9.82;;;28.40;68.20;;;;;;5486251;26;20023;-75
2024/04/14 08:12:52;;;;;;;18.83;9.40;;;28.60;67.90;;;;;;5484697;26;20020;-76
2024/04/14 08:15:56;;;;;;;17.33;9.38;;;28.90;66.90;;;;;;5485764;26;20022;-75
2024/04/14 08:19:00;;;;;;;17.17;8.23;;;28.90;66.90;;;;;;5484884;26;20018;-75
2024/04/14 08:22:04;;;;;;;15.05;7.85;;;28.80;67.10;;;;;;5485483;26;20019;-77
2024/04/14 08:25:08;;;;;;;20.77;9.02;;;28.80;67.30;;;;;;5484397;26;20022;-76
2024/04/14 08:28:12;;;;;;;15.20;8.23;;;29.00;67.30;;;;;;5486109;26;20019;-75
2024/04/14 08:31:16;;;;;;;30.83;9.32;;;29.00;67.20;;;;;;5485818;26;20026;-77
2024/04/14 08:34:20;;;;;;;11.93;7.30;;;28.90;66.20;;;;;;5484416;26;20022;-76
2024/04/14 08:37:24;;;;;;;10.02;7.15;;;29.00;67.30;;;;;;5485793;26;20026;-76
2024/04/14 08:40:28;;;;;;;10.15;6.60;;;29.00;67.30;;;;;;5485251;26;20022;-75
2024/04/14 08:43:33;;;;;;;11.18;7.03;;;29.10;67.40;;;;;;5485524;26;20025;-77
2024/04/14 08:46:37;;;;;;;10.18;6.85;;;29.20;66.80;;;;;;5484193;26;20022;-75
2024/04/14 08:49:42;;;;;;;13.55;6.85;;;29.10;66.80;;;;;;5485307;26;20018;-74
2024/04/14 08:52:46;;;;;;;12.73;6.78;;;29.20;67.20;;;;;;5485206;26;20018;-75
2024/04/14 08:55:50;;;;;;;10.25;5.82;;;29.20;66.50;;;;;;5487369;26;20023;-77
2024/04/14 08:58:59;;;;;;;9.90;6.10;;;29.10;67.10;;;;;;5488726;26;20037;-74
2024/04/14 09:02:05;;;;;;;9.73;5.88;;;29.20;66.80;;;;;;5489054;26;20042;-76
2024/04/14 09:05:09;;;;;;;9.80;5.60;;;29.00;65.70;;;;;;5488832;26;20030;-76
2024/04/14 09:08:14;;;;;;;14.38;6.22;;;28.90;66.60;;;;;;5488987;26;20400;-76
2024/04/14 09:11:19;;;;;;;9.40;5.70;;;28.90;66.60;;;;;;5488440;26;20470;-76
2024/04/14 09:14:23;;;;;;;15.02;6.70;;;28.80;66.60;;;;;;5488548;26;20363;-75
2024/04/14 09:17:27;;;;;;;12.93;5.78;;;28.80;66.80;;;;;;5487388;26;20014;-75
2024/04/14 09:20:32;;;;;;;12.65;5.82;;;28.90;66.80;;;;;;5488551;26;20022;-78
2024/04/14 09:23:36;;;;;;;15.48;6.20;;;28.70;66.50;;;;;;5488465;26;20384;-76
2024/04/14 09:26:41;;;;;;;13.93;7.20;;;28.50;66.90;;;;;;5488539;26;20023;-75
2024/04/14 09:29:45;;;;;;;10.73;5.82;;;28.50;67.90;;;;;;5488382;26;20022;-75
2024/04/14 09:32:51;;;;;;;12.20;5.57;;;28.60;68.40;;;;;;5487957;26;20403;-75
2024/04/14 09:35:56;;;;;;;8.25;6.10;;;28.70;68.40;;;;;;5487958;26;20022;-80
2024/04/14 09:39:03;;;;;;;14.23;7.22;;;28.80;68.10;;;;;;5486923;26;20029;-75
2024/04/14 09:42:07;;;;;;;17.70;6.97;;;28.80;68.00;;;;;;5488362;26;20033;-76
2024/04/14 09:45:14;;;;;;;21.13;12.18;;;28.70;67.60;;;;;;5488306;26;20022;-76
2024/04/14 09:48:20;;;;;;;22.20;7.45;;;28.70;67.70;;;;;;5487142;26;20026;-76
2024/04/14 09:51:26;;;;;;;10.98;6.75;;;28.70;68.40;;;;;;5487045;26;20018;-75
2024/04/14 09:54:31;;;;;;;15.32;7.03;;;28.80;68.00;;;;;;5486545;26;20018;-76
2024/04/14 09:57:35;;;;;;;10.70;6.25;;;28.80;69.10;;;;;;5487348;26;20022;-76
2024/04/14 10:00:39;;;;;;;16.30;6.25;;;28.90;69.20;;;;;;5487941;26;20022;-75
2024/04/14 10:03:46;;;;;;;10.93;6.20;;;29.00;68.50;;;;;;5487738;26;20369;-77
2024/04/14 10:06:50;;;;;;;13.85;7.30;;;29.20;68.20;;;;;;5487440;26;20021;-75
2024/04/14 10:09:55;;;;;;;10.60;6.85;;;29.30;67.40;;;;;;5488129;26;20026;-74
2024/04/14 10:13:06;;;;;;;17.33;7.32;;;29.30;67.60;;;;;;5487828;26;20022;-77
2024/04/14 10:16:10;;;;;;;13.15;6.72;;;29.40;67.00;;;;;;5487642;26;20023;-76
2024/04/14 10:19:19;;;;;;;13.98;6.35;;;29.30;67.00;;;;;;5488117;26;20022;-76
2024/04/14 10:22:30;;;;;;;18.45;9.27;;;29.40;67.40;;;;;;5487666;26;20616;-77
2024/04/14 10:25:50;;;;;;;13.38;8.30;;;29.40;69.00;;;;;;5487440;26;20466;-76
2024/04/14 10:28:56;;;;;;;15.70;8.03;;;29.50;68.90;;;;;;5487318;26;20023;-74
2024/04/14 10:32:00;;;;;;;11.75;7.20;;;29.60;68.90;;;;;;5487180;26;20018;-75
2024/04/14 10:35:16;;;;;;;12.75;6.53;;;29.70;68.60;;;;;;5487079;26;20022;-76
2024/04/14 10:38:20;;;;;;;15.38;7.47;;;29.80;68.30;;;;;;5487315;26;20030;-77
2024/04/14 10:41:25;;;;;;;45.00;9.32;;;29.80;68.10;;;;;;5487125;26;20018;-75
2024/04/14 10:44:29;;;;;;;20.73;7.90;;;29.80;67.60;;;;;;5487321;26;20018;-77
2024/04/14 10:47:34;;;;;;;13.23;8.35;;;29.70;67.40;;;;;;5486000;26;20022;-76
2024/04/14 10:50:39;;;;;;;20.23;10.63;;;29.60;67.70;;;;;;5487311;26;20022;-75
2024/04/14 10:53:42;;;;;;;17.17;8.15;;;29.60;67.60;;;;;;5487159;26;20026;-73
2024/04/14 10:56:47;;;;;;;11.10;7.72;;;29.60;67.70;;;;;;5487304;26;20018;-76
2024/04/14 10:59:51;;;;;;;19.38;7.72;;;29.50;68.10;;;;;;5487051;26;20367;-77
2024/04/14 11:02:55;;;;;;;21.75;7.90;;;29.60;67.80;;;;;;5487192;26;20705;-75
2024/04/14 11:06:00;;;;;;;14.75;7.93;;;29.50;67.60;;;;;;5485784;26;20098;-76
2024/04/14 11:09:04;;;;;;;11.02;7.53;;;29.50;67.60;;;;;;5487123;26;20133;-77
2024/04/14 11:12:08;;;;;;;17.80;9.48;;;29.40;67.90;;;;;;5486837;26;20470;-77
2024/04/14 11:15:13;;;;;;;20.95;11.60;;;29.40;67.50;;;;;;5487101;26;20014;-75
2024/04/14 11:18:18;;;;;;;11.73;7.38;;;29.30;68.60;;;;;;5484216;26;20022;-75
2024/04/14 11:21:24;;;;;;;9.40;6.80;;;29.30;67.70;;;;;;5486736;26;20372;-76
2024/04/14 11:24:32;;;;;;;11.23;6.60;;;29.20;67.80;;;;;;5486365;26;20034;-76
2024/04/14 11:27:36;;;;;;;23.40;8.10;;;29.20;68.00;;;;;;5486097;26;20033;-78
2024/04/14 11:30:42;;;;;;;13.82;6.70;;;29.20;66.80;;;;;;5485082;26;20018;-76
2024/04/14 11:33:55;;;;;;;16.05;6.82;;;29.10;68.10;;;;;;5486397;26;20368;-75
2024/04/14 11:36:59;;;;;;;12.20;7.20;;;29.10;67.30;;;;;;5486678;26;20364;-74
2024/04/14 11:40:06;;;;;;;14.13;7.25;;;29.00;67.30;;;;;;5486290;26;20023;-76
2024/04/14 11:43:11;;;;;;;38.40;8.00;;;29.00;67.80;;;;;;5486476;26;20018;-76
2024/04/14 11:46:16;;;;;;;9.45;6.30;;;29.00;68.10;;;;;;5486397;26;20022;-77
2024/04/14 11:49:20;;;;;;;12.82;6.75;;;29.00;68.50;;;;;;5486627;26;20042;-75
2024/04/14 11:52:23;;;;;;;15.05;6.93;;;28.90;68.40;;;;;;5486616;26;20269;-75
2024/04/14 11:55:27;;;;;;;12.45;6.78;;;28.90;68.70;;;;;;5486672;26;20804;-75
2024/04/14 11:58:32;;;;;;;8.50;5.55;;;29.00;69.50;;;;;;5486288;26;20019;-75
2024/04/14 12:01:36;;;;;;;13.00;6.13;;;28.90;68.20;;;;;;5486404;26;20037;-76
2024/04/14 12:04:40;;;;;;;10.38;6.20;;;28.90;67.80;;;;;;5486248;26;20365;-76
2024/04/14 12:07:44;;;;;;;11.80;5.80;;;28.90;67.40;;;;;;5486218;26;20423;-76
2024/04/14 12:10:48;;;;;;;11.98;5.63;;;28.80;67.10;;;;;;5486198;26;20018;-75
2024/04/14 12:13:52;;;;;;;10.50;5.28;;;28.80;66.80;;;;;;5486287;26;20018;-78
2024/04/14 12:16:57;;;;;;;8.82;6.10;;;28.70;66.90;;;;;;5486321;26;20018;-75
2024/04/14 12:20:01;;;;;;;10.05;6.03;;;28.70;66.90;;;;;;5486560;26;20034;-77
2024/04/14 12:23:04;;;;;;;13.40;6.57;;;28.70;67.00;;;;;;5484664;26;20025;-76
2024/04/14 12:26:09;;;;;;;17.80;6.60;;;28.70;67.00;;;;;;5486113;26;20473;-76
2024/04/14 12:29:13;;;;;;;8.98;6.32;;;28.60;67.50;;;;;;5486047;26;20018;-77
2024/04/14 12:32:17;;;;;;;10.82;6.82;;;28.60;67.70;;;;;;5485939;26;20030;-77
2024/04/14 12:35:22;;;;;;;9.13;7.00;;;28.60;68.00;;;;;;5485870;26;20034;-75
2024/04/14 12:38:27;;;;;;;8.18;6.28;;;28.60;68.10;;;;;;5485704;26;20030;-76
2024/04/14 12:41:31;;;;;;;9.80;6.43;;;28.50;68.10;;;;;;5485659;26;20065;-78
2024/04/14 12:44:35;;;;;;;10.90;6.57;;;28.60;67.30;;;;;;5485742;26;20362;-77
2024/04/14 12:47:40;;;;;;;9.82;6.28;;;28.50;66.90;;;;;;5463383;26;20022;-76
2024/04/14 12:50:51;;;;;;;10.93;6.13;;;28.50;67.70;;;;;;5485154;26;20022;-75
2024/04/14 12:53:55;;;;;;;10.73;6.80;;;28.50;67.70;;;;;;5485460;26;20025;-76
2024/04/14 12:56:59;;;;;;;8.30;5.70;;;28.50;67.30;;;;;;5485440;26;20026;-76
2024/04/14 13:00:03;;;;;;;12.00;5.45;;;28.50;67.40;;;;;;5485501;26;20026;-76
2024/04/14 13:03:08;;;;;;;12.15;6.30;;;28.50;67.20;;;;;;5485251;26;20022;-76
2024/04/14 13:06:12;;;;;;;10.13;6.32;;;28.50;67.60;;;;;;5485397;26;20466;-76
2024/04/14 13:09:16;;;;;;;11.88;5.28;;;28.50;66.90;;;;;;5484859;26;20022;-75
2024/04/14 13:12:21;;;;;;;8.50;5.65;;;28.40;66.60;;;;;;5483984;26;20046;-76
2024/04/14 13:15:25;;;;;;;12.40;5.78;;;28.40;67.00;;;;;;5485040;26;20037;-76
2024/04/14 13:18:30;;;;;;;8.13;5.68;;;28.40;67.20;;;;;;5485086;26;20022;-76
2024/04/14 13:21:38;;;;;;;12.50;6.30;;;28.30;66.80;;;;;;5484640;26;20026;-76
2024/04/14 13:24:43;;;;;;;9.57;5.50;;;28.30;67.50;;;;;;5484512;26;20022;-76
2024/04/14 13:27:47;;;;;;;10.50;4.88;;;28.30;67.10;;;;;;5484898;26;20034;-75
2024/04/14 13:30:51;;;;;;;8.88;5.22;;;28.20;66.50;;;;;;5484769;26;20017;-76
2024/04/14 13:33:55;;;;;;;8.68;4.78;;;28.20;66.30;;;;;;5484489;26;20504;-76
2024/04/14 13:36:59;;;;;;;9.05;5.18;;;28.20;66.20;;;;;;5484696;26;20030;-75
2024/04/14 13:40:04;;;;;;;6.30;4.88;;;28.20;66.70;;;;;;5484285;26;20683;-76
2024/04/14 13:43:11;;;;;;;10.27;4.88;;;28.10;66.60;;;;;;5486999;26;20046;-76
2024/04/14 13:46:15;;;;;;;12.57;5.25;;;28.10;66.70;;;;;;5488590;26;20019;-76
2024/04/14 13:49:19;;;;;;;9.48;4.60;;;28.10;67.10;;;;;;5488134;26;20022;-76
2024/04/14 13:52:30;;;;;;;6.32;4.40;;;28.10;66.90;;;;;;5488297;26;20358;-77
2024/04/14 13:55:34;;;;;;;7.03;4.50;;;28.00;66.80;;;;;;5487582;26;20404;-75
2024/04/14 13:58:38;;;;;;;12.07;4.90;;;28.00;66.70;;;;;;5488007;26;20137;-74
2024/04/14 14:01:43;;;;;;;12.05;5.55;;;27.90;66.30;;;;;;5487644;26;20022;-75
2024/04/14 14:04:47;;;;;;;6.85;4.68;;;27.90;66.30;;;;;;5488023;26;20038;-76
2024/04/14 14:07:53;;;;;;;7.38;4.63;;;27.90;66.90;;;;;;5487739;26;20038;-75
2024/04/14 14:10:57;;;;;;;6.47;4.70;;;27.80;66.50;;;;;;5488048;26;20057;-78
2024/04/14 14:14:01;;;;;;;12.73;5.40;;;27.80;67.10;;;;;;5487715;26;20060;-76
2024/04/14 14:17:06;;;;;;;9.50;5.03;;;27.80;67.20;;;;;;5465781;26;20018;-76
2024/04/14 14:20:10;;;;;;;9.23;4.93;;;27.70;66.70;;;;;;5487759;26;20442;-76
2024/04/14 14:23:14;;;;;;;7.35;4.80;;;27.70;67.20;;;;;;5487549;26;20030;-76
2024/04/14 14:26:20;;;;;;;6.30;4.68;;;27.70;66.50;;;;;;5487602;26;20030;-78
2024/04/14 14:29:24;;;;;;;8.27;4.97;;;27.60;66.20;;;;;;5487941;26;20485;-77
2024/04/14 14:32:30;;;;;;;8.40;4.50;;;27.60;66.40;;;;;;5486398;26;20034;-75
2024/04/14 14:38:58;;;;;;;6.68;4.05;;;27.50;67.50;;;;;;5487384;26;20034;-76
2024/04/14 14:42:02;;;;;;;7.93;5.10;;;27.50;67.60;;;;;;5487622;26;20600;-76
2024/04/14 14:45:06;;;;;;;6.32;5.07;;;27.50;67.50;;;;;;5487275;26;20453;-75
2024/04/14 14:48:10;;;;;;;8.77;4.82;;;27.50;67.10;;;;;;5487499;26;20026;-76
2024/04/14 14:51:15;;;;;;;6.13;4.28;;;27.50;66.50;;;;;;5486998;26;20030;-75
2024/04/14 14:54:19;;;;;;;9.10;5.00;;;27.50;66.20;;;;;;5486776;26;20030;-75
2024/04/14 14:57:23;;;;;;;8.93;4.88;;;27.40;66.70;;;;;;5487168;26;20033;-77
2024/04/14 15:00:28;;;;;;;8.38;5.45;;;27.40;67.20;;;;;;5487461;26;20030;-76
2024/04/14 15:03:32;;;;;;;6.07;4.47;;;27.40;67.40;;;;;;5486988;26;20024;-75
2024/04/14 15:06:36;;;;;;;7.57;5.47;;;27.40;67.00;;;;;;5487256;26;20486;-75
2024/04/14 15:09:41;;;;;;;7.53;5.00;;;27.40;67.80;;;;;;5487171;26;20045;-76
2024/04/14 15:12:46;;;;;;;5.90;5.13;;;27.40;68.30;;;;;;5486613;26;20482;-76
2024/04/14 15:15:54;;;;;;;6.88;4.97;;;27.30;68.50;;;;;;5487303;26;20022;-76
2024/04/14 15:18:58;;;;;;;9.07;5.18;;;27.30;69.00;;;;;;5486946;26;20030;-77
2024/04/14 15:22:02;;;;;;;7.28;5.22;;;27.20;68.70;;;;;;5486650;26;20026;-76
2024/04/14 15:25:07;;;;;;;7.10;4.82;;;27.20;68.80;;;;;;5485635;26;20045;-75
2024/04/14 15:28:12;;;;;;;7.60;4.95;;;27.20;68.90;;;;;;5486912;26;20042;-76
2024/04/14 15:31:15;;;;;;;8.57;5.13;;;27.10;69.30;;;;;;5485237;26;20030;-76
2024/04/14 15:34:20;;;;;;;12.75;5.60;;;27.10;69.30;;;;;;5486727;26;20030;-75
2024/04/14 15:37:24;;;;;;;8.15;5.00;;;27.00;68.40;;;;;;5485339;26;20434;-77
2024/04/14 15:40:31;;;;;;;9.30;4.85;;;27.00;68.50;;;;;;5486721;26;20026;-75
2024/04/14 15:43:35;;;;;;;10.27;5.72;;;27.00;68.80;;;;;;5486648;26;20030;-76
2024/04/14 15:46:39;;;;;;;9.93;5.30;;;27.00;68.80;;;;;;5486262;26;20021;-77
2024/04/14 15:49:47;;;;;;;10.27;5.05;;;26.90;68.70;;;;;;5486362;26;20065;-77
2024/04/14 15:52:50;;;;;;;10.38;5.32;;;26.90;69.00;;;;;;5486439;26;20368;-77
2024/04/14 15:55:55;;;;;;;7.22;5.13;;;26.80;69.30;;;;;;5485788;26;20228;-75
2024/04/14 15:59:00;;;;;;;13.50;5.22;;;26.80;69.00;;;;;;5486250;26;20033;-75
2024/04/14 16:02:05;;;;;;;11.85;5.05;;;26.80;69.30;;;;;;5485938;26;20439;-76
2024/04/14 16:05:09;;;;;;;7.03;4.65;;;26.70;69.50;;;;;;5485536;26;20022;-76
2024/04/14 16:08:13;;;;;;;12.00;5.95;;;26.70;69.70;;;;;;5486570;26;20030;-77
2024/04/14 16:11:17;;;;;;;9.25;5.00;;;26.60;68.90;;;;;;5485668;26;20014;-76
2024/04/14 16:14:22;;;;;;;11.20;5.32;;;26.60;69.10;;;;;;5485085;26;20030;-77
2024/04/14 16:17:26;;;;;;;7.70;5.00;;;26.60;69.10;;;;;;5486150;26;20021;-74
2024/04/14 16:20:30;;;;;;;7.47;5.03;;;26.50;69.10;;;;;;5485407;26;20030;-76
2024/04/14 16:23:43;;;;;;;10.18;5.50;;;26.50;69.60;;;;;;5486010;26;20370;-77
2024/04/14 16:26:47;;;;;;;8.98;6.45;;;26.40;69.70;;;;;;5485601;26;20021;-76
2024/04/14 16:29:53;;;;;;;8.73;5.05;;;26.40;69.70;;;;;;5485631;26;20030;-76